OIII/THR METAR and TAF weather

Enter ICAO airport designator
Station Type Date Time Source
OIII METAR 2021/03/02 13:30 UTC NOAA

OIII 021330Z 25012KT 9999 FEW040 15/M08 Q1019 A3009


Station Type Date Time Source
OIII Decoded METAR 2021/03/02 13:30 UTC NOAA

Tehran-Mehrabad, Iran (OIII) 35-41N 051-21E 1191M
Mar 02, 2021 - 08:30 AM EST / 2021.03.02 1330 UTC
Wind: from the WSW (250 degrees) at 14 MPH (12 KT):0
Visibility: greater than 7 mile(s):0
Sky conditions: mostly clear
Temperature: 59 F (15 C)
Dew Point: 17 F (-8 C)
Relative Humidity: 19%
Pressure (altimeter): 30.09 in. Hg (1018 hPa)
ob: OIII 021330Z 25012KT 9999 FEW040 15/M08 Q1019 A3009
cycle: 13

Station Type Date Time Source
OIII TAF 2021/03/02 12:09 UTC NOAA

TAF OIII 021150Z 0212/0318 27008KT 7000 FEW040 SCT100
TEMPO 0212/0215 27018KT FEW035CB SCT040 BKN090
TEMPO 0221/0305 FEW035CB SCT040 BKN090
TEMPO 0305/0309 4000 HZ/BR

Example: see airport list